Strona główna
METAR-TAF:

METAR-TAF

Lotnisko :

Port lotniczy Kupang-El Tari

Kupang, Indonezja

Szerokość geograficzna: 10-10-17S, Długość geograficzna: 123-40-16E, wysokość: 102 m

Aktualna obserwacja pogody

Raport powstał 51 minut temu, godzina 10:00 UTC
Wiatr 8 kt od wschodnio-południowy wschód
Temperatura 26°C
Wilgotność 70%
Ciśnienie 1013 hPa
Widzialność 10 km lub więcej
Mało chmury na wysokości 2000 ft

METAR: WATT 171000Z 12008KT 9999 FEW020 26/20 Q1013 NOSIG

czas: 17:51 (10:51 UTC)

Prognoza

Raport powstał 5 godziny i 51 minut temu, godzina 05:00 UTC
Prognoza ważna od 17 godzina 06 UTC do 18 godzina 06 UTC
Wiatr 12 kt od wschód w porywach dochodzący do 25 kt
Widzialność: 9000 m
Mało chmury na wysokości 2000 ft
Stopniowe zmiany
od 17 godzina 13 UTC do 17 godzina 15 UTC
Wiatr 8 kt od wschodnio-południowy wschód

TAF: WATT 170500Z 1706/1806 10012G25KT 9000 FEW020 BECMG 1713/1715 11008KT

Obserwacja i prognoza pogody dla ponad 4000 lotnisk (raport METAR i TAF).

Dostępne stacje oznaczono żółtymi i czerwonymi punktami na mapie.

Najedź kursorem aby zobaczyć nazwę stacji.

Kliknij aby zobaczyć obserwacje i prognozy pogody.

Aby zmienić mapę: kliknij na zielony przycisk z czarnym krzyżykiem, aby powiększyć; na zielony przycisk z myślnikiem, aby pomniejszyć; na zielone strzałki, aby przejść do map sąsiednich.


METAR-TAF: